Flight Track Log - Related Links

Times and Time Zones

All times are in EDT time to prevent confusion due to time zone crossing. See the KLM1880 flight status page for this flight to view local times or setup timezone preferences in your user account.

Time Position Orientation Groundspeed Altitude Reporting Facility
EDT Latitude Longitude Course Direction KTS MPH feet Rate Location/Type
Tue 12:32:00 AM 50.7052 8.5516 308° West  Level Estimated
Tue 12:33:00 AM 50.7398 8.4753 306° West  Level Estimated
Tue 12:34:00 AM 50.7744 8.3989 306° West  Level Estimated
Tue 12:35:00 AM 50.8089 8.3225 306° West  Level Estimated
Tue 12:36:00 AM 50.8434 8.2459 306° West  Level Estimated
Tue 12:37:00 AM 50.8779 8.1692 305° West  Level Estimated
Tue 12:38:00 AM 50.9123 8.0924 305° West  Level Estimated
Tue 12:39:00 AM 50.9466 8.0154 305° West  Level Estimated
Tue 12:40:00 AM 50.9809 7.9384 305° West  Level Estimated
Tue 12:41:00 AM 51.0151 7.8612 305° West  Level Estimated
Tue 12:42:00 AM 51.0493 7.7839 305° West  Level Estimated
Tue 12:43:00 AM 51.0835 7.7066 305° West  Level Estimated
Tue 12:44:00 AM 51.1175 7.6291 305° West  Level Estimated
Tue 12:45:00 AM 51.1516 7.5514 305° West  Level Estimated
Tue 12:46:00 AM 51.1856 7.4737 305° West  Level Estimated
Tue 12:47:00 AM 51.2195 7.3959 305° West  Level Estimated
Tue 12:48:00 AM 51.2534 7.3179 305° West  Level Estimated
Tue 12:49:00 AM 51.2872 7.2398 305° West  Level Estimated
Tue 12:50:00 AM 51.3210 7.1617 305° West  Level Estimated
Tue 12:51:00 AM 51.3547 7.0834 305° West  Level Estimated
Tue 12:52:00 AM 51.3884 7.0049 305° West  Level Estimated
Tue 12:53:00 AM 51.4220 6.9264 304° West  Level Estimated
Tue 12:54:00 AM 51.4556 6.8477 304° West  Level Estimated
Tue 12:55:00 AM 51.4891 6.7690 304° West  Level Estimated
Tue 12:56:00 AM 51.5225 6.6901 304° West  Level Estimated
Tue 12:57:00 AM 51.5560 6.6111 304° West  Level Estimated
Tue 12:58:00 AM 51.5893 6.5320 304° West  Level Estimated
Tue 12:59:00 AM 51.6226 6.4528 304° West  Level Estimated
Tue 01:00:00 AM 51.6559 6.3734 304° West  Level Estimated
Tue 01:01:00 AM 51.6891 6.2939 304° West  Level Estimated
Tue 01:02:00 AM 51.7222 6.2144 304° West  Level Estimated
Tue 01:03:00 AM 51.7553 6.1347 304° West  Level Estimated
Tue 01:04:00 AM 51.7883 6.0549 304° West  Level Estimated
Tue 01:05:00 AM 51.8213 5.9749 304° West  Level Estimated
Tue 01:06:00 AM 51.8542 5.8949 304° West  Level Estimated
Tue 01:07:00 AM 51.8871 5.8147 304° West  Level Estimated
Tue 01:08:00 AM 51.9199 5.7344 304° West  Level Estimated
Tue 01:09:00 AM 51.9527 5.6540 303° West  Level Estimated
Tue 01:10:00 AM 51.9854 5.5735 303° West  Level Estimated
Tue 01:11:00 AM 52.0180 5.4929 303° West  Level Estimated
Tue 01:12:00 AM 52.0506 5.4121 303° West  Level Estimated
Tue 01:13:00 AM 52.0832 5.3313 303° West  Level Estimated
Tue 01:14:00 AM 52.1212 5.2364 303° West  Level Estimated
Tue 01:15:00 AM 52.1592 5.1413 303° West  Level Estimated
Tue 01:16:00 AM 52.1971 5.0461 303° West  Level Estimated
Tue 01:17:00 AM 52.2349 4.9507 303° West  Level Estimated
Tue 01:18:00 AM 52.2727 4.8552 303° West  Level Estimated
Tue 01:19:00 AM 52.3086 4.7639 303° West  Level Estimated
Tue 01:20:00 AM 52.3086 4.7639 348° North  Level Estimated
Tue 01:21:00 AM 52.3086 4.7639 348° North  Level Estimated

Login

Don't have an account? Register now (free) for customized features, flight alerts, and more!